Terminal Aerodrome Forecast
Issued by NWS

Home | Current Version | Previous Version | Text Only | Print | Product List | Glossary On
Versions: 1 2 3 4 5 6 7 8 9 10 11 12 13 14 15 16 17 18 19 20 21 22 23
131
FTUS46 KMFR 262205 AAA
TAFOTH
TAF AMD
KOTH 262205Z 2622/2718 35012G20KT P6SM SCT010
     FM262300 VRB03KT P6SM OVC010
     FM270600 35005KT 3SM BR OVC004
     FM271700 35010KT P6SM BKN010
      AMD NOT SKED=

USA.gov is the U.S. government's official web portal to all federal, state and local government web resources and services.